createdAt,value
2019-03-12T00:00:46.438Z,35.70
2019-03-12T00:03:16.628Z,35.05
2019-03-12T00:05:45.606Z,33.55
2019-03-12T00:08:13.534Z,25.45
2019-03-12T00:10:41.504Z,45.63
2019-03-12T00:13:09.434Z,29.87
2019-03-12T00:18:24.285Z,35.38
2019-03-12T00:20:52.217Z,41.60
2019-03-12T00:23:20.150Z,34.98
2019-03-12T00:25:49.134Z,40.52
2019-03-12T00:28:18.015Z,49.55
2019-03-12T00:30:45.989Z,42.13
2019-03-12T00:33:13.931Z,38.83
2019-03-12T00:35:41.884Z,32.55
2019-03-12T00:38:09.799Z,34.48
2019-03-12T00:40:37.783Z,28.90
2019-03-12T00:43:07.914Z,32.70
2019-03-12T00:45:35.849Z,35.85
2019-03-12T00:48:03.899Z,38.42
2019-03-12T00:50:31.921Z,32.45
2019-03-12T00:52:59.878Z,48.50
2019-03-12T00:55:27.932Z,41.23
2019-03-12T00:57:56.885Z,36.70
2019-03-12T01:00:24.811Z,29.77
2019-03-12T01:02:52.784Z,38.28
2019-03-12T01:05:20.907Z,33.65
2019-03-12T01:07:48.834Z,30.15
2019-03-12T01:10:16.814Z,33.02
2019-03-12T01:12:44.816Z,37.48
2019-03-12T01:15:12.738Z,27.45
2019-03-12T01:17:40.723Z,31.15
2019-03-12T01:20:08.658Z,24.97
2019-03-12T01:22:36.605Z,37.88
2019-03-12T01:25:04.602Z,35.77
2019-03-12T01:27:33.542Z,33.03
2019-03-12T01:30:01.641Z,33.70
2019-03-12T01:32:29.710Z,29.25
2019-03-12T01:34:57.682Z,31.07
2019-03-12T01:37:25.598Z,28.87
2019-03-12T01:39:53.542Z,38.48
2019-03-12T01:42:22.164Z,24.55
2019-03-12T01:44:50.517Z,33.05
2019-03-12T01:47:18.539Z,21.75
2019-03-12T01:49:46.507Z,34.85
2019-03-12T01:52:14.540Z,22.82
2019-03-12T01:54:42.488Z,26.00
2019-03-12T01:57:10.602Z,30.20
2019-03-12T01:59:38.531Z,41.98
2019-03-12T02:02:06.955Z,41.58
2019-03-12T02:04:35.901Z,27.87
2019-03-12T02:07:03.815Z,36.88
2019-03-12T02:09:32.253Z,32.55
2019-03-12T02:12:00.300Z,33.10
2019-03-12T02:14:28.305Z,31.68
2019-03-12T02:16:56.243Z,32.90
2019-03-12T02:19:24.347Z,34.43
2019-03-12T02:21:52.376Z,24.90
2019-03-12T02:24:22.576Z,34.67
2019-03-12T02:26:51.710Z,34.45
2019-03-12T02:29:19.701Z,52.45
2019-03-12T02:31:48.642Z,74.85
2019-03-12T02:34:16.703Z,72.75
2019-03-12T02:36:47.529Z,92.60
2019-03-12T02:39:15.475Z,79.07
2019-03-12T02:41:43.443Z,53.50
2019-03-12T02:44:14.352Z,43.15
2019-03-12T02:46:42.288Z,35.17
2019-03-12T02:49:10.451Z,40.25
2019-03-12T02:51:38.481Z,73.00
2019-03-12T02:54:06.528Z,153.23
2019-03-12T02:56:35.071Z,149.27
2019-03-12T02:59:03.478Z,159.90
2019-03-12T03:01:31.442Z,119.47
2019-03-12T03:04:00.283Z,96.70
2019-03-12T03:06:51.293Z,103.78
2019-03-12T03:09:19.366Z,90.05
2019-03-12T03:11:50.928Z,58.87
2019-03-12T03:14:17.179Z,65.65
2019-03-12T03:16:45.131Z,39.20
2019-03-12T03:19:13.090Z,37.58
2019-03-12T03:21:41.049Z,38.15
2019-03-12T03:24:08.972Z,26.77
2019-03-12T03:26:36.935Z,34.65
2019-03-12T03:29:05.472Z,23.40
2019-03-12T03:31:33.478Z,28.75
2019-03-12T03:34:01.809Z,39.88
2019-03-12T03:36:29.991Z,28.62
2019-03-12T03:38:58.208Z,30.62
2019-03-12T03:41:26.326Z,30.37
2019-03-12T03:43:54.263Z,17.50
2019-03-12T03:46:22.200Z,29.75
2019-03-12T03:48:50.240Z,24.18
2019-03-12T03:51:18.193Z,23.80
2019-03-12T03:53:46.105Z,27.48
2019-03-12T03:56:16.150Z,28.90
2019-03-12T03:58:44.077Z,21.60
2019-03-12T04:01:12.037Z,26.52
2019-03-12T04:03:45.798Z,24.98
2019-03-12T04:06:14.321Z,26.75
2019-03-12T04:08:43.210Z,26.33
2019-03-12T04:11:11.854Z,20.00
2019-03-12T04:13:40.781Z,15.53
2019-03-12T04:16:08.734Z,19.48
2019-03-12T04:18:36.710Z,25.80
2019-03-12T04:21:04.941Z,25.45
2019-03-12T04:23:35.156Z,19.55
2019-03-12T04:26:03.165Z,23.65
2019-03-12T04:28:31.086Z,21.68
2019-03-12T04:30:59.025Z,24.50
2019-03-12T04:33:27.088Z,22.22
2019-03-12T04:35:55.044Z,16.50
2019-03-12T04:38:24.248Z,18.73
2019-03-12T04:40:52.414Z,21.20
2019-03-12T04:43:22.339Z,25.62
2019-03-12T04:45:50.298Z,25.08
2019-03-12T04:48:18.304Z,23.52
2019-03-12T04:50:47.097Z,17.52
2019-03-12T04:53:15.250Z,30.80
2019-03-12T04:55:43.208Z,22.10
2019-03-12T04:58:11.151Z,17.80
2019-03-12T05:00:39.078Z,22.32
2019-03-12T05:03:06.999Z,20.12
2019-03-12T05:05:35.931Z,21.27
2019-03-12T05:08:03.895Z,21.57
2019-03-12T05:10:32.128Z,42.78
2019-03-12T05:13:00.204Z,27.70
2019-03-12T05:15:29.239Z,47.55
2019-03-12T05:17:57.421Z,44.45
2019-03-12T05:20:25.412Z,67.53
2019-03-12T05:22:53.404Z,84.52
2019-03-12T05:25:21.519Z,61.92
2019-03-12T05:27:50.432Z,67.72
2019-03-12T05:30:18.337Z,32.25
2019-03-12T05:32:46.532Z,23.02
2019-03-12T05:35:14.504Z,22.07
2019-03-12T05:37:42.436Z,34.03
2019-03-12T05:40:10.403Z,28.27
2019-03-12T05:42:40.188Z,19.42
2019-03-12T05:45:08.197Z,29.98
2019-03-12T05:47:36.171Z,26.25
2019-03-12T05:55:39.947Z,56.92
2019-03-12T05:58:07.910Z,42.80
2019-03-12T06:00:36.921Z,46.98
2019-03-12T06:03:04.836Z,44.48
2019-03-12T06:05:33.074Z,56.35
2019-03-12T06:08:02.059Z,93.55
2019-03-12T06:10:29.966Z,131.50
2019-03-12T06:12:57.903Z,148.82
2019-03-12T06:15:26.383Z,174.72
2019-03-12T06:17:54.340Z,140.10
2019-03-12T06:20:22.308Z,145.25
2019-03-12T06:22:50.219Z,117.33
2019-03-12T06:25:18.425Z,75.45
2019-03-12T06:27:46.402Z,45.43
2019-03-12T06:30:14.320Z,44.03
2019-03-12T06:32:51.626Z,47.65
2019-03-12T06:35:33.464Z,56.30
2019-03-12T06:38:07.244Z,61.20
2019-03-12T06:40:56.080Z,112.50
2019-03-12T06:43:33.098Z,79.22
2019-03-12T06:46:18.745Z,53.78
2019-03-12T06:48:56.218Z,80.92
2019-03-12T06:51:45.746Z,82.78
2019-03-12T06:54:22.058Z,94.00
2019-03-12T06:57:17.672Z,100.78
2019-03-12T07:00:13.835Z,88.45
2019-03-12T07:06:05.370Z,143.10
2019-03-12T07:09:00.463Z,165.12
2019-03-12T07:11:41.603Z,96.00
2019-03-12T07:14:31.380Z,79.87
2019-03-12T07:17:03.428Z,89.85
2019-03-12T07:19:50.196Z,145.17
2019-03-12T07:22:37.023Z,171.35
2019-03-12T07:25:30.032Z,185.00
2019-03-12T07:28:31.945Z,215.90
2019-03-12T07:31:11.984Z,154.42
2019-03-12T07:33:56.895Z,133.00
2019-03-12T07:37:02.203Z,88.95
2019-03-12T07:39:48.932Z,49.08
2019-03-12T07:42:28.346Z,36.98
2019-03-12T07:45:27.375Z,34.98
2019-03-12T07:48:03.198Z,30.25
2019-03-12T07:50:52.750Z,22.67
2019-03-12T07:53:42.410Z,29.30
2019-03-12T07:56:34.925Z,39.50
2019-03-12T07:59:10.599Z,35.45
2019-03-12T08:01:44.569Z,28.73
2019-03-12T08:04:31.338Z,29.42
2019-03-12T08:07:18.149Z,39.80
2019-03-12T08:10:03.507Z,37.13
2019-03-12T08:12:54.340Z,33.58
2019-03-12T08:15:59.656Z,26.15
2019-03-12T08:18:46.409Z,33.50
2019-03-12T08:21:31.801Z,23.30
2019-03-12T08:24:13.777Z,36.68
2019-03-12T08:26:47.403Z,28.38
2019-03-12T08:29:40.434Z,22.05
2019-03-12T08:32:42.285Z,18.23
2019-03-12T08:35:34.985Z,31.23
2019-03-12T08:38:11.741Z,36.70
2019-03-12T08:40:55.981Z,16.57
2019-03-12T08:43:37.683Z,15.85
2019-03-12T08:46:42.993Z,15.15
2019-03-12T08:49:27.520Z,14.57
2019-03-12T08:52:20.130Z,24.73
2019-03-12T08:54:58.330Z,29.33
2019-03-12T09:00:43.890Z,18.00
2019-03-12T09:03:20.800Z,28.83
2019-03-12T09:06:06.384Z,17.30
2019-03-12T09:08:47.822Z,16.57
2019-03-12T09:11:34.593Z,23.70
2019-03-12T09:14:27.363Z,20.53
2019-03-12T09:17:22.994Z,21.13
2019-03-12T09:20:09.780Z,24.67
2019-03-12T09:22:54.720Z,17.20
2019-03-12T09:25:32.925Z,18.67
2019-03-12T09:28:20.698Z,20.03
2019-03-12T09:31:02.507Z,19.80
2019-03-12T09:33:52.235Z,19.30
2019-03-12T09:36:45.209Z,19.93
2019-03-12T09:39:30.779Z,19.20
2019-03-12T09:42:25.453Z,19.17
2019-03-12T09:45:18.250Z,18.90
2019-03-12T09:48:05.770Z,24.87
2019-03-12T09:50:41.934Z,14.90
2019-03-12T09:53:31.679Z,20.13
2019-03-12T09:56:24.558Z,14.67
2019-03-12T09:59:10.193Z,21.00
2019-03-12T10:01:50.313Z,21.23
2019-03-12T10:07:42.707Z,22.10
2019-03-12T10:10:35.380Z,15.73
2019-03-12T10:13:28.433Z,17.50
2019-03-12T10:16:15.176Z,26.13
2019-03-12T10:19:02.048Z,18.57
2019-03-12T10:21:37.670Z,24.43
2019-03-12T10:24:24.459Z,24.87
2019-03-12T10:27:11.609Z,14.20
2019-03-12T10:29:46.458Z,18.07
2019-03-12T10:32:48.403Z,14.13
2019-03-12T10:35:28.830Z,27.60
2019-03-12T10:38:10.859Z,19.53
2019-03-12T10:40:56.910Z,23.53
2019-03-12T10:43:48.641Z,26.07
2019-03-12T10:46:43.599Z,20.00
2019-03-12T10:49:13.435Z,20.57
2019-03-12T10:51:41.283Z,16.63
2019-03-12T10:54:11.509Z,17.67
2019-03-12T10:56:39.509Z,21.03
2019-03-12T10:59:07.429Z,21.50
2019-03-12T11:01:37.527Z,20.60
2019-03-12T11:04:05.479Z,32.77
2019-03-12T11:06:33.422Z,20.30
2019-03-12T11:09:01.356Z,16.83
2019-03-12T11:11:29.458Z,13.17
2019-03-12T11:13:57.373Z,18.53
2019-03-12T11:16:25.267Z,16.20
2019-03-12T11:18:59.347Z,17.07
2019-03-12T11:21:27.051Z,20.40
2019-03-12T11:23:55.019Z,15.07
2019-03-12T11:26:22.978Z,17.87
2019-03-12T11:28:50.953Z,19.40
2019-03-12T11:31:18.909Z,22.07
2019-03-12T11:33:46.811Z,18.73
2019-03-12T11:36:14.973Z,21.33
2019-03-12T11:38:43.077Z,17.43
2019-03-12T11:41:11.076Z,20.63
2019-03-12T11:43:42.357Z,14.00
2019-03-12T11:46:12.184Z,24.93
2019-03-12T11:48:51.833Z,14.80
2019-03-12T11:51:19.871Z,17.00
2019-03-12T11:53:48.563Z,18.47
2019-03-12T11:56:16.593Z,20.70
2019-03-12T11:58:44.553Z,16.80
2019-03-12T12:01:12.643Z,18.60
2019-03-12T12:03:41.006Z,15.33
2019-03-12T12:06:09.054Z,20.50
2019-03-12T12:08:37.029Z,17.10
2019-03-12T12:11:04.958Z,19.93
2019-03-12T12:13:32.851Z,17.20
2019-03-12T12:16:01.093Z,24.23
2019-03-12T12:18:29.918Z,21.67
2019-03-12T12:20:57.929Z,17.90
2019-03-12T12:23:26.017Z,20.50
2019-03-12T12:25:54.008Z,17.10
2019-03-12T12:28:21.930Z,19.70
2019-03-12T12:30:49.911Z,17.70
2019-03-12T12:33:17.836Z,15.83
2019-03-12T12:35:45.749Z,26.87
2019-03-12T12:38:14.049Z,20.17
2019-03-12T12:40:45.264Z,16.70
2019-03-12T12:43:13.147Z,18.67
2019-03-12T12:45:41.424Z,20.00
2019-03-12T12:48:09.401Z,23.63
2019-03-12T12:50:37.348Z,10.53
2019-03-12T12:53:05.256Z,12.37
2019-03-12T12:55:34.681Z,15.13
2019-03-12T12:58:02.613Z,21.70
2019-03-12T13:00:30.614Z,22.10
2019-03-12T13:02:58.509Z,22.93
2019-03-12T13:05:26.422Z,17.43
2019-03-12T13:07:55.969Z,15.60
2019-03-12T13:10:28.140Z,12.27
2019-03-12T13:12:56.013Z,11.63
2019-03-12T13:15:23.976Z,20.30
2019-03-12T13:17:51.917Z,18.53
2019-03-12T13:20:19.816Z,16.20
2019-03-12T13:22:47.799Z,20.47
2019-03-12T13:25:15.717Z,22.70
2019-03-12T13:27:43.605Z,17.37
2019-03-12T13:30:11.703Z,16.30
2019-03-12T13:32:40.005Z,20.53
2019-03-12T13:37:56.920Z,22.80
2019-03-12T13:40:26.107Z,23.37
2019-03-12T13:42:54.304Z,18.43
2019-03-12T13:45:22.539Z,24.57
2019-03-12T13:47:50.532Z,20.67
2019-03-12T13:50:18.882Z,17.03
2019-03-12T13:52:46.820Z,21.50
2019-03-12T13:55:14.938Z,32.20
2019-03-12T13:57:44.816Z,15.23
2019-03-12T14:00:12.907Z,17.97
2019-03-12T14:02:40.875Z,26.00
2019-03-12T14:05:09.926Z,25.80
2019-03-12T14:07:38.259Z,16.43
2019-03-12T14:10:06.238Z,20.97
2019-03-12T14:12:34.162Z,23.00
2019-03-12T14:15:02.084Z,20.83
2019-03-12T14:17:30.093Z,28.00
2019-03-12T14:19:58.013Z,30.63
2019-03-12T14:22:26.369Z,26.93
2019-03-12T14:24:54.948Z,23.47
2019-03-12T14:30:11.837Z,20.63
2019-03-12T14:32:40.687Z,24.50
2019-03-12T14:35:08.549Z,20.43
2019-03-12T14:37:36.490Z,18.50
2019-03-12T14:40:04.818Z,20.23
2019-03-12T14:42:32.979Z,24.27
2019-03-12T14:45:00.949Z,25.63
2019-03-12T14:47:29.897Z,20.13
2019-03-12T14:49:57.871Z,23.63
2019-03-12T14:52:25.979Z,19.73
2019-03-12T14:54:53.903Z,23.43
2019-03-12T14:57:21.863Z,16.90
2019-03-12T14:59:49.892Z,19.83
2019-03-12T15:02:17.819Z,19.57
2019-03-12T15:04:46.814Z,23.40
2019-03-12T15:07:16.735Z,15.90
2019-03-12T15:09:44.742Z,24.17
2019-03-12T15:12:12.652Z,19.03
2019-03-12T15:14:40.588Z,13.93
2019-03-12T15:17:08.750Z,26.70
2019-03-12T15:19:37.080Z,14.70
2019-03-12T15:22:05.064Z,20.77
2019-03-12T15:24:36.021Z,23.20
2019-03-12T15:27:02.940Z,21.97
2019-03-12T15:29:31.620Z,20.40
2019-03-12T15:32:04.093Z,19.30
2019-03-12T15:37:16.066Z,15.60
2019-03-12T15:39:58.307Z,29.80
2019-03-12T15:42:25.686Z,20.00
2019-03-12T15:44:53.691Z,27.93
2019-03-12T15:47:21.712Z,18.80
2019-03-12T15:49:49.682Z,21.13
2019-03-12T15:52:45.711Z,18.73
2019-03-12T15:55:13.657Z,17.80
2019-03-12T15:57:41.636Z,14.83
2019-03-12T16:00:09.568Z,18.93
2019-03-12T16:02:37.514Z,23.50
2019-03-12T16:05:05.503Z,14.90
2019-03-12T16:07:33.409Z,21.80
2019-03-12T16:10:01.463Z,25.87
2019-03-12T16:12:29.704Z,18.33
2019-03-12T16:14:57.608Z,17.87
2019-03-12T16:17:25.536Z,23.33
2019-03-12T16:19:53.529Z,21.20
2019-03-12T16:22:21.417Z,24.87
2019-03-12T16:24:49.358Z,18.87
2019-03-12T16:27:23.152Z,23.98
2019-03-12T16:29:51.578Z,18.47
2019-03-12T16:32:19.555Z,18.70
2019-03-12T16:34:47.534Z,25.20
2019-03-12T16:37:15.647Z,21.00
2019-03-12T16:39:43.564Z,18.47
2019-03-12T16:42:12.021Z,21.83
2019-03-12T16:44:40.118Z,21.25
2019-03-12T16:47:08.122Z,22.13
2019-03-12T16:49:36.038Z,19.83
2019-03-12T16:52:04.030Z,24.15
2019-03-12T16:54:32.000Z,18.02
2019-03-12T16:57:00.142Z,17.93
2019-03-12T16:59:28.141Z,16.00
2019-03-12T17:01:56.090Z,16.32
2019-03-12T17:04:24.153Z,19.45
2019-03-12T17:06:52.152Z,18.23
2019-03-12T17:09:26.020Z,16.77
2019-03-12T17:11:53.653Z,16.87
2019-03-12T17:14:21.593Z,14.60
2019-03-12T17:16:49.556Z,9.93
2019-03-12T17:19:19.600Z,13.32
2019-03-12T17:21:47.795Z,15.83
2019-03-12T17:24:16.230Z,18.25
2019-03-12T17:26:44.231Z,17.52
2019-03-12T17:29:23.086Z,13.10
2019-03-12T17:31:52.106Z,11.18
2019-03-12T17:34:20.975Z,16.75
2019-03-12T17:36:48.912Z,10.75
2019-03-12T17:39:16.937Z,16.65
2019-03-12T17:41:44.842Z,16.70
2019-03-12T17:44:14.629Z,21.50
2019-03-12T17:46:42.744Z,8.43
2019-03-12T17:49:12.654Z,16.32
2019-03-12T17:51:40.331Z,9.77
2019-03-12T17:54:08.862Z,10.95
2019-03-12T17:56:37.066Z,15.03
2019-03-12T17:59:05.104Z,12.45
2019-03-12T18:01:35.643Z,12.95
2019-03-12T18:04:04.973Z,15.00
2019-03-12T18:06:35.072Z,8.85
2019-03-12T18:09:02.982Z,7.73
2019-03-12T18:11:30.985Z,9.63
2019-03-12T18:13:59.352Z,7.95
2019-03-12T18:16:40.017Z,8.50
2019-03-12T18:18:57.009Z,9.50
2019-03-12T18:21:24.993Z,12.80
2019-03-12T18:23:52.910Z,12.80
2019-03-12T18:26:21.068Z,10.27
2019-03-12T18:28:49.050Z,14.00
2019-03-12T18:31:16.971Z,9.40
2019-03-12T18:33:45.139Z,7.78
2019-03-12T18:36:13.102Z,16.05
2019-03-12T18:38:41.018Z,7.67
2019-03-12T18:41:14.830Z,12.93
2019-03-12T18:43:46.065Z,11.50
2019-03-12T18:46:14.226Z,10.40
2019-03-12T18:48:44.595Z,10.60
2019-03-12T18:51:15.477Z,21.53
2019-03-12T18:53:43.459Z,21.20
2019-03-12T18:58:58.192Z,10.70
2019-03-12T19:01:26.115Z,16.10
2019-03-12T19:03:54.629Z,15.77
2019-03-12T19:06:22.545Z,17.00
2019-03-12T19:08:50.553Z,28.57
2019-03-12T19:11:19.047Z,13.13
2019-03-12T19:13:46.957Z,14.20
2019-03-12T19:16:15.986Z,11.40
2019-03-12T19:18:44.040Z,12.43
2019-03-12T19:21:11.974Z,18.82
2019-03-12T19:26:26.794Z,23.27
2019-03-12T19:29:00.767Z,24.60
2019-03-12T19:31:39.839Z,23.87
2019-03-12T19:34:29.717Z,26.62
2019-03-12T19:36:57.688Z,14.28
2019-03-12T19:39:25.623Z,23.80
2019-03-12T19:41:53.527Z,15.78
2019-03-12T19:44:21.451Z,13.50
2019-03-12T19:46:49.365Z,26.97
2019-03-12T19:49:17.948Z,17.27
2019-03-12T19:54:32.977Z,14.73
2019-03-12T19:57:00.885Z,23.50
2019-03-12T19:59:28.880Z,8.98
2019-03-12T20:01:56.829Z,21.85
2019-03-12T20:04:24.893Z,14.28
2019-03-12T20:06:52.800Z,19.60
2019-03-12T20:09:20.913Z,18.98
2019-03-12T20:11:48.848Z,16.27
2019-03-12T20:14:19.213Z,14.63
2019-03-12T20:16:47.093Z,12.80
2019-03-12T20:19:15.013Z,17.15
2019-03-12T20:21:43.043Z,17.30
2019-03-12T20:24:17.144Z,13.78
2019-03-12T20:26:45.070Z,13.70
2019-03-12T20:29:13.567Z,18.73
2019-03-12T20:31:41.535Z,11.57
2019-03-12T20:34:12.519Z,17.95
2019-03-12T20:36:40.708Z,14.67
2019-03-12T20:39:11.019Z,14.80
2019-03-12T20:41:38.202Z,15.90
2019-03-12T20:44:06.159Z,11.88
2019-03-12T20:46:34.104Z,15.75
2019-03-12T20:49:10.916Z,11.85
2019-03-12T20:51:31.686Z,17.67
2019-03-12T20:54:00.429Z,13.13
2019-03-12T20:56:28.392Z,17.48
2019-03-12T20:58:59.308Z,13.28
2019-03-12T21:01:28.292Z,16.87
2019-03-12T21:03:56.457Z,11.03
2019-03-12T21:06:24.403Z,15.53
2019-03-12T21:08:52.573Z,13.20
2019-03-12T21:11:20.540Z,11.20
2019-03-12T21:13:48.520Z,14.87
2019-03-12T21:16:16.544Z,13.40
2019-03-12T21:18:44.518Z,10.70
2019-03-12T21:21:12.665Z,6.85
2019-03-12T21:23:41.716Z,12.45
2019-03-12T21:26:09.784Z,13.58
2019-03-12T21:28:38.938Z,12.33
2019-03-12T21:31:09.290Z,12.63
2019-03-12T21:33:37.223Z,13.30
2019-03-12T21:36:08.635Z,17.30
2019-03-12T21:38:36.732Z,12.35
2019-03-12T21:41:04.719Z,16.77
2019-03-12T21:43:32.688Z,13.98
2019-03-12T21:46:01.204Z,14.65
2019-03-12T21:48:29.952Z,15.25
2019-03-12T21:50:58.074Z,12.33
2019-03-12T21:53:27.078Z,14.65
2019-03-12T21:55:55.032Z,15.90
2019-03-12T21:58:23.227Z,22.27
2019-03-12T22:00:52.165Z,9.38
2019-03-12T22:03:20.104Z,13.20
2019-03-12T22:05:56.529Z,14.73
2019-03-12T22:08:25.341Z,21.70
2019-03-12T22:10:53.760Z,14.35
2019-03-12T22:13:21.679Z,19.10
2019-03-12T22:15:49.871Z,11.88
2019-03-12T22:18:18.097Z,11.83
2019-03-12T22:20:46.196Z,13.25
2019-03-12T22:23:17.998Z,14.50
2019-03-12T22:25:46.497Z,13.93
2019-03-12T22:28:14.569Z,11.63
2019-03-12T22:30:42.632Z,11.70
2019-03-12T22:33:10.558Z,14.18
2019-03-12T22:35:38.632Z,14.77
2019-03-12T22:38:06.552Z,13.85
2019-03-12T22:40:34.496Z,10.20
2019-03-12T22:43:02.728Z,10.07
2019-03-12T22:45:30.764Z,14.10
2019-03-12T22:47:58.720Z,7.87
2019-03-12T22:50:26.903Z,6.30
2019-03-12T22:52:54.810Z,14.07
2019-03-12T22:55:24.927Z,11.25
2019-03-12T22:57:52.868Z,12.20
2019-03-12T23:00:20.835Z,9.68
2019-03-12T23:02:49.958Z,10.82
2019-03-12T23:05:18.526Z,11.77
2019-03-12T23:07:46.477Z,14.05
2019-03-12T23:10:18.493Z,14.27
2019-03-12T23:12:46.425Z,12.40
2019-03-12T23:15:14.354Z,16.10
2019-03-12T23:17:44.731Z,16.43
2019-03-12T23:20:12.805Z,12.70
2019-03-12T23:22:41.813Z,8.78
2019-03-12T23:25:09.750Z,9.93
2019-03-12T23:27:37.693Z,13.08
2019-03-12T23:30:05.613Z,13.28
2019-03-12T23:32:33.525Z,11.55
2019-03-12T23:35:01.650Z,10.75
2019-03-12T23:37:29.600Z,11.75
2019-03-12T23:39:57.738Z,8.15
2019-03-12T23:42:25.707Z,12.15
2019-03-12T23:44:53.637Z,13.15
2019-03-12T23:47:21.756Z,10.32
2019-03-12T23:49:49.696Z,11.75
2019-03-12T23:52:18.737Z,12.80
2019-03-12T23:54:46.770Z,15.20
2019-03-12T23:57:15.656Z,12.47
2019-03-12T23:59:43.645Z,19.25
